Time;durP1;ratioP1;P1;durP2;ratioP2;P2;SDS_P1;SDS_P2;PMS_P1;PMS_P2;Temp;Humidity;BMP_temperature;BMP_pressure;BME280_temperature;BME280_humidity;BME280_pressure;Samples;Min_cycle;Max_cycle;Signal;HPM_P1;HPM_P2
2022/05/24 00:01:20;;;;;;;19.73;17.38;;;;;;;16.12;92.95;100006.56;5037635;28;20065;-45
2022/05/24 00:03:48;;;;;;;21.80;18.25;;;;;;;16.10;92.83;100015.13;5046036;28;20492;-46
2022/05/24 00:06:17;;;;;;;21.10;17.58;;;;;;;16.10;92.49;100009.63;5034134;28;20041;-44
2022/05/24 00:08:45;;;;;;;19.48;16.67;;;;;;;16.06;92.36;100007.84;5034533;28;20507;-46
2022/05/24 00:11:18;;;;;;;18.00;15.30;;;;;;;16.05;92.73;100003.50;5021845;28;20049;-45
2022/05/24 00:13:46;;;;;;;20.80;17.05;;;;;;;16.01;92.43;100008.81;5053003;28;20047;-46
2022/05/24 00:16:14;;;;;;;23.85;18.08;;;;;;;16.01;92.55;100003.31;5055600;28;20454;-50
2022/05/24 00:18:42;;;;;;;22.15;18.48;;;;;;;15.99;92.38;99997.34;5055317;28;20063;-48
2022/05/24 00:21:14;;;;;;;19.88;15.57;;;;;;;15.99;91.97;99994.59;5053564;28;20067;-46
2022/05/24 00:23:42;;;;;;;24.05;17.77;;;;;;;15.95;92.13;99990.91;5037357;28;20038;-46
2022/05/24 00:26:16;;;;;;;20.20;17.67;;;;;;;15.96;91.69;100000.75;5017677;28;20057;-44
2022/05/24 00:28:50;;;;;;;21.65;18.58;;;;;;;15.95;91.78;99994.44;5003206;28;20037;-46
2022/05/24 00:31:35;;;;;;;22.73;16.60;;;;;;;15.96;91.31;99998.00;5045259;28;20049;-47
2022/05/24 00:34:03;;;;;;;19.15;14.82;;;;;;;15.94;90.31;100008.50;5038954;28;20077;-46
2022/05/24 00:36:49;;;;;;;18.00;15.00;;;;;;;15.90;91.04;100013.84;5033657;28;20378;-46
2022/05/24 00:39:37;;;;;;;16.20;13.00;;;;;;;15.90;90.26;100008.34;5034734;28;20495;-46
2022/05/24 00:42:28;;;;;;;17.52;11.80;;;;;;;15.86;90.23;100010.13;5034002;28;20053;-42
2022/05/24 00:45:09;;;;;;;15.63;11.55;;;;;;;15.86;90.01;100006.56;5033765;28;20092;-46
2022/05/24 00:48:03;;;;;;;13.18;10.32;;;;;;;15.84;89.34;99998.63;5046982;28;20049;-45
2022/05/24 00:50:52;;;;;;;13.65;9.25;;;;;;;15.81;88.72;99998.50;5045998;28;20045;-45
2022/05/24 00:53:48;;;;;;;17.05;9.07;;;;;;;15.77;88.74;99995.56;5034554;28;20049;-44
2022/05/24 00:56:47;;;;;;;13.57;8.00;;;;;;;15.75;88.83;100001.41;5033352;28;20057;-43
2022/05/24 00:59:37;;;;;;;14.05;8.35;;;;;;;15.76;88.21;100008.50;5033536;28;20059;-45
2022/05/24 01:02:26;;;;;;;14.30;8.07;;;;;;;15.73;88.03;100002.88;5031940;28;20482;-46
2022/05/24 01:05:23;;;;;;;12.65;7.22;;;;;;;15.71;88.25;100014.16;5038148;28;20057;-46
2022/05/24 01:08:10;;;;;;;;;;;;;;;15.71;88.06;100008.66;5033734;28;20045;-44
2022/05/24 01:10:58;;;;;;;11.02;7.55;;;;;;;15.68;88.23;100011.19;5044996;28;20483;-45
2022/05/24 01:13:46;;;;;;;13.98;8.25;;;;;;;15.67;88.59;100006.84;5043604;28;20060;-47
2022/05/24 01:16:34;;;;;;;16.33;8.05;;;;;;;15.67;88.06;100002.16;5033030;28;20057;-48
2022/05/24 01:19:34;;;;;;;12.05;7.38;;;;;;;15.67;88.23;99993.13;5032940;28;20049;-46
2022/05/24 01:22:26;;;;;;;15.00;7.60;;;;;;;15.66;87.98;99997.81;5048689;28;20057;-44
2022/05/24 01:25:25;;;;;;;12.18;6.78;;;;;;;15.66;87.63;99997.81;5032744;28;20052;-44
2022/05/24 01:28:22;;;;;;;12.23;7.35;;;;;;;15.64;88.05;100002.00;5032956;28;20055;-46
2022/05/24 01:30:56;;;;;;;13.55;8.07;;;;;;;15.61;87.28;99987.00;5032148;28;20038;-44
2022/05/24 01:36:50;;;;;;;11.60;5.90;;;;;;;15.54;85.87;99994.91;5033075;28;20045;-45
2022/05/24 01:39:39;;;;;;;13.80;6.72;;;;;;;15.53;85.98;100004.25;5033457;28;20053;-48
2022/05/24 01:42:29;;;;;;;14.80;6.63;;;;;;;15.51;85.48;100015.56;5032434;28;20132;-46
2022/05/24 01:45:27;;;;;;;14.55;6.55;;;;;;;15.52;85.49;100016.38;5029787;28;20052;-52
2022/05/24 01:48:17;;;;;;;12.32;5.95;;;;;;;15.50;85.57;100011.19;5031679;28;20053;-47
2022/05/24 01:51:02;;;;;;;11.18;5.63;;;;;;;15.48;85.05;100012.63;5032606;28;20463;-47
2022/05/24 01:53:42;;;;;;;11.63;6.18;;;;;;;15.48;84.92;100012.63;5024697;28;20083;-50
2022/05/24 01:56:44;;;;;;;10.68;5.40;;;;;;;15.45;84.10;100010.53;5032280;28;20037;-48
2022/05/24 01:59:13;;;;;;;12.52;5.55;;;;;;;15.42;83.93;100019.44;5033440;28;20443;-45
2022/05/24 02:01:50;;;;;;;10.70;5.28;;;;;;;15.37;83.69;100014.91;5033191;28;20404;-46
2022/05/24 02:04:32;;;;;;;12.10;5.18;;;;;;;15.34;83.28;100005.38;5018093;28;20060;-46
2022/05/24 02:07:10;;;;;;;10.15;4.40;;;;;;;15.30;83.33;100007.13;5032160;28;20416;-47
2022/05/24 02:09:55;;;;;;;10.05;4.47;;;;;;;15.27;82.78;100007.78;5025128;28;20038;-44
2022/05/24 02:12:40;;;;;;;8.25;4.28;;;;;;;15.30;83.22;100001.63;5016755;28;20083;-46
2022/05/24 02:15:33;;;;;;;12.38;4.57;;;;;;;15.27;82.69;100002.28;5031802;28;20500;-45
2022/05/24 02:18:22;;;;;;;8.38;4.30;;;;;;;15.23;82.43;100011.47;5029496;28;20096;-45
2022/05/24 02:21:10;;;;;;;11.13;4.70;;;;;;;15.19;82.18;100016.78;5045702;28;20499;-47
2022/05/24 02:23:57;;;;;;;12.32;4.70;;;;;;;15.16;82.38;100031.16;5046773;28;20412;-46
2022/05/24 02:26:28;;;;;;;10.60;4.10;;;;;;;15.13;82.10;100029.03;5034113;28;20091;-47
2022/05/24 02:29:17;;;;;;;9.52;4.07;;;;;;;15.11;82.28;100031.28;5032938;28;20413;-46
2022/05/24 02:32:05;;;;;;;9.02;4.38;;;;;;;15.11;81.76;100025.81;5032564;28;20060;-45
2022/05/24 02:34:53;;;;;;;11.07;4.38;;;;;;;15.10;81.74;100022.25;5043174;28;20087;-44
2022/05/24 02:37:41;;;;;;;10.10;4.22;;;;;;;15.11;81.72;100025.81;5052385;28;20052;-47
2022/05/24 02:43:15;;;;;;;10.15;3.72;;;;;;;15.05;81.55;100019.63;5045023;28;20045;-46
2022/05/24 02:46:03;;;;;;;9.88;3.40;;;;;;;15.06;80.79;100017.72;5033605;28;20398;-45
2022/05/24 02:48:51;;;;;;;8.45;3.42;;;;;;;14.98;80.94;100013.00;5052818;28;20131;-45
2022/05/24 02:51:19;;;;;;;10.93;4.28;;;;;;;15.00;81.16;100019.78;5052838;28;20057;-46
2022/05/24 02:53:48;;;;;;;11.20;3.67;;;;;;;15.03;81.35;100024.66;5034877;28;20041;-45
2022/05/24 02:56:16;;;;;;;11.73;3.65;;;;;;;15.04;81.01;100025.47;5032735;28;20515;-47
2022/05/24 02:58:44;;;;;;;7.88;3.40;;;;;;;15.04;80.98;100030.94;5034689;28;20042;-45
2022/05/24 03:01:18;;;;;;;12.55;4.13;;;;;;;15.04;80.83;100036.44;5052595;28;20151;-46
2022/05/24 03:03:48;;;;;;;8.57;3.40;;;;;;;15.00;80.56;100025.25;5038703;28;20071;-45
2022/05/24 03:06:17;;;;;;;9.65;3.45;;;;;;;15.00;80.64;100019.78;5034018;28;20423;-45
2022/05/24 03:14:14;;;;;;;8.63;3.40;;;;;;;14.95;80.28;100017.19;5037223;28;20052;-48
2022/05/24 03:14:26;;;;;;;10.57;3.03;;;;;;;14.95;80.31;100016.38;5042949;28;20384;-46
2022/05/24 03:16:56;;;;;;;9.25;3.13;;;;;;;14.94;80.66;100021.06;5037076;28;20310;-45
2022/05/24 03:19:45;;;;;;;6.78;2.80;;;;;;;14.97;80.13;100025.09;5040601;28;20084;-46
2022/05/24 03:22:33;;;;;;;10.40;3.33;;;;;;;14.94;79.33;100025.75;5037477;28;20057;-45
2022/05/24 03:25:01;;;;;;;7.93;2.88;;;;;;;14.91;79.09;100033.47;5037436;28;20053;-45
2022/05/24 03:27:49;;;;;;;8.43;2.65;;;;;;;14.88;79.10;100028.59;5032941;28;20057;-46
2022/05/24 03:30:18;;;;;;;7.15;2.60;;;;;;;14.84;79.48;100024.91;5037438;28;20049;-46
2022/05/24 03:33:06;;;;;;;10.50;2.83;;;;;;;14.85;79.32;100017.47;5035745;28;20057;-47
2022/05/24 03:35:53;;;;;;;10.70;3.03;;;;;;;14.83;79.33;100020.53;5021276;28;20041;-47
2022/05/24 03:38:22;;;;;;;9.50;3.20;;;;;;;14.84;79.20;100026.81;5035806;28;20038;-47
2022/05/24 03:41:09;;;;;;;9.32;2.80;;;;;;;14.80;79.38;100020.34;5038014;28;20061;-46
2022/05/24 03:43:57;;;;;;;6.65;2.50;;;;;;;14.82;79.60;100023.59;5050763;28;20495;-48
2022/05/24 03:46:44;;;;;;;8.05;2.85;;;;;;;14.80;79.69;100043.09;5037066;28;20042;-47
2022/05/24 03:49:32;;;;;;;6.93;2.63;;;;;;;14.78;79.79;100034.38;5046856;28;20502;-47
2022/05/24 03:52:00;;;;;;;8.13;2.80;;;;;;;14.78;79.79;100030.84;5035815;28;20065;-44
2022/05/24 03:54:28;;;;;;;11.65;3.10;;;;;;;14.80;79.85;100036.81;5034613;28;20076;-46
2022/05/24 03:59:42;;;;;;;12.48;3.30;;;;;;;14.79;80.13;100036.00;5052566;28;20052;-49
2022/05/24 04:02:10;;;;;;;8.95;3.50;;;;;;;14.75;80.37;100048.72;5035999;28;20500;-48
2022/05/24 04:04:37;;;;;;;8.98;3.28;;;;;;;14.78;80.21;100056.31;5034774;28;20093;-46
2022/05/24 04:07:05;;;;;;;7.70;3.28;;;;;;;14.78;80.44;100061.81;5033673;28;20136;-46
2022/05/24 04:09:34;;;;;;;8.60;3.60;;;;;;;14.78;80.17;100050.03;5038647;28;20123;-48
2022/05/24 04:12:04;;;;;;;8.13;3.22;;;;;;;14.76;80.50;100069.53;5036261;28;20049;-49
2022/05/24 04:14:52;;;;;;;9.07;3.88;;;;;;;14.77;80.76;100087.63;5045805;28;20083;-46
2022/05/24 04:17:39;;;;;;;10.13;4.03;;;;;;;14.73;80.48;100102.28;5050738;28;20250;-46
2022/05/24 04:20:28;;;;;;;9.23;3.92;;;;;;;14.68;80.77;100097.72;5042411;28;20442;-47
2022/05/24 04:23:17;;;;;;;8.90;3.97;;;;;;;14.68;80.37;100089.50;5055091;28;20052;-47
2022/05/24 04:26:05;;;;;;;9.32;3.65;;;;;;;14.62;81.46;100085.25;5054999;28;20450;-46
2022/05/24 04:28:53;;;;;;;9.38;3.67;;;;;;;14.67;81.19;100082.38;5049101;28;20049;-43
2022/05/24 04:31:41;;;;;;;9.18;3.97;;;;;;;14.65;81.09;100070.94;5048861;28;20041;-47
2022/05/24 04:34:29;;;;;;;10.07;3.92;;;;;;;14.63;81.15;100051.25;5051908;28;20057;-44
2022/05/24 04:37:17;;;;;;;12.02;3.75;;;;;;;14.62;81.49;100055.09;5049123;28;20056;-46
2022/05/24 04:39:45;;;;;;;9.57;3.83;;;;;;;14.58;81.17;100062.34;5053397;28;20500;-46
2022/05/24 04:42:19;;;;;;;7.53;3.50;;;;;;;14.60;81.28;100085.59;5054583;28;20500;-50
2022/05/24 04:44:49;;;;;;;9.63;3.78;;;;;;;14.63;81.23;100097.84;5047744;28;20048;-52
2022/05/24 04:47:18;;;;;;;10.10;4.00;;;;;;;14.62;81.15;100093.47;5034738;28;20116;-48
2022/05/24 04:49:50;;;;;;;13.90;3.83;;;;;;;14.60;81.13;100101.19;5034888;28;20054;-52
2022/05/24 04:52:18;;;;;;;10.27;4.00;;;;;;;14.60;81.38;100109.44;5034567;28;20045;-51
2022/05/24 04:54:46;;;;;;;11.73;4.03;;;;;;;14.62;81.30;100098.97;5036252;28;20499;-48
2022/05/24 04:57:16;;;;;;;12.52;3.78;;;;;;;14.64;81.32;100088.50;5032627;28;20052;-49
2022/05/24 04:59:52;;;;;;;10.07;3.60;;;;;;;14.61;80.64;100087.19;5033026;28;20045;-47
2022/05/24 05:02:40;;;;;;;10.25;3.60;;;;;;;14.58;80.97;100095.25;5033646;28;20102;-49
2022/05/24 05:05:10;;;;;;;10.88;3.50;;;;;;;14.56;81.36;100097.50;5032647;28;20053;-47
2022/05/24 05:07:41;;;;;;;9.90;3.55;;;;;;;14.55;81.24;100099.44;5033532;28;20504;-46
2022/05/24 05:10:28;;;;;;;10.10;3.60;;;;;;;14.56;81.36;100111.19;5038294;28;20041;-47
2022/05/24 05:13:03;;;;;;;8.82;3.25;;;;;;;14.56;81.24;100130.38;5052710;28;20080;-47
2022/05/24 05:15:50;;;;;;;8.52;3.30;;;;;;;14.56;81.41;100133.13;5050524;28;20487;-46
2022/05/24 05:18:37;;;;;;;6.13;2.67;;;;;;;14.57;81.66;100142.94;5035094;28;20048;-47
2022/05/24 05:21:31;;;;;;;9.68;2.83;;;;;;;14.56;81.11;100141.34;5034080;28;20495;-46
2022/05/24 05:24:18;;;;;;;8.68;2.95;;;;;;;14.52;81.25;100143.06;5034024;28;20057;-45
2022/05/24 05:27:06;;;;;;;8.13;2.63;;;;;;;14.49;81.61;100152.72;5034406;28;20484;-45
2022/05/24 05:32:43;;;;;;;14.52;3.95;;;;;;;14.39;81.61;100145.53;5048609;28;20041;-46
2022/05/24 05:35:27;;;;;;;10.25;3.67;;;;;;;14.35;82.01;100136.31;5020513;28;20052;-45
2022/05/24 05:38:15;;;;;;;10.88;3.55;;;;;;;14.36;81.69;100132.47;5048868;28;20518;-47
2022/05/24 05:40:44;;;;;;;13.30;3.50;;;;;;;14.36;81.32;100140.69;5051018;28;20087;-46
2022/05/24 05:43:12;;;;;;;9.60;2.80;;;;;;;14.43;82.15;100135.59;5053635;28;20052;-46
2022/05/24 05:45:40;;;;;;;8.38;2.85;;;;;;;14.51;82.76;100133.22;5053908;28;20404;-46
2022/05/24 05:48:08;;;;;;;10.13;3.33;;;;;;;14.62;82.93;100129.13;5048845;28;20514;-45
2022/05/24 05:50:36;;;;;;;8.82;2.85;;;;;;;14.69;81.40;100140.47;5040157;28;21986;-47
2022/05/24 05:53:04;;;;;;;11.85;3.25;;;;;;;14.75;80.66;100138.41;5041918;28;20131;-46
2022/05/24 05:55:32;;;;;;;11.00;3.10;;;;;;;14.60;80.30;100147.81;5053064;28;20041;-49
2022/05/24 05:57:59;;;;;;;7.20;2.80;;;;;;;14.72;81.45;100159.06;4340076;28;10000805;-47
2022/05/24 06:00:27;;;;;;;9.38;2.90;;;;;;;14.74;80.56;100153.22;5042796;28;20041;-47
2022/05/24 06:02:55;;;;;;;11.43;2.97;;;;;;;14.74;80.77;100162.25;5049707;28;20483;-46
2022/05/24 06:05:29;;;;;;;6.93;2.53;;;;;;;14.66;81.90;100169.31;5048197;28;20045;-45
2022/05/24 06:08:03;;;;;;;9.60;3.42;;;;;;;14.79;82.13;100173.13;5029305;28;20550;-47
2022/05/24 06:10:42;;;;;;;12.02;3.42;;;;;;;14.69;80.17;100185.13;5045552;28;20048;-46
2022/05/24 06:13:24;;;;;;;9.32;2.78;;;;;;;14.96;82.44;100188.06;5033903;28;20064;-47
2022/05/24 06:16:08;;;;;;;12.88;3.15;;;;;;;14.78;79.84;100203.59;5046561;28;20049;-45
2022/05/24 06:18:56;;;;;;;9.57;2.60;;;;;;;14.62;80.16;100194.91;5043474;28;20057;-47
2022/05/24 06:21:24;;;;;;;9.77;3.10;;;;;;;14.79;83.60;100195.06;5045429;28;20067;-46
2022/05/24 06:24:14;;;;;;;8.07;2.55;;;;;;;14.81;79.88;100197.50;5049574;28;20063;-47
2022/05/24 06:27:02;;;;;;;7.78;2.30;;;;;;;14.75;80.85;100204.22;5040853;28;20057;-45
2022/05/24 06:29:50;;;;;;;4.18;2.15;;;;;;;14.79;81.92;100192.34;5030904;28;20057;-45
2022/05/24 06:32:18;;;;;;;5.60;2.20;;;;;;;14.86;84.80;100189.97;5030078;28;20060;-46
2022/05/24 06:35:00;;;;;;;10.65;3.63;;;;;;;15.05;78.71;100197.16;5028624;28;20504;-47
2022/05/24 06:37:48;;;;;;;5.97;2.60;;;;;;;15.21;81.94;100198.41;5029694;28;20140;-48
2022/05/24 06:40:36;;;;;;;6.45;2.30;;;;;;;15.18;79.53;100195.47;5029430;28;20064;-47
2022/05/24 06:43:05;;;;;;;8.23;2.33;;;;;;;15.47;80.83;100209.50;5034078;28;20076;-49
2022/05/24 06:45:34;;;;;;;6.60;2.70;;;;;;;15.29;76.39;100208.59;5033768;28;20052;-48
2022/05/24 06:48:01;;;;;;;9.55;2.78;;;;;;;15.12;77.96;100211.25;5046785;28;20053;-46
2022/05/24 06:50:30;;;;;;;5.72;2.17;;;;;;;15.58;80.08;100215.53;5040192;28;20120;-46
2022/05/24 06:52:58;;;;;;;4.55;1.77;;;;;;;15.77;81.61;100218.84;5033923;28;20452;-46
2022/05/24 06:55:26;;;;;;;7.97;2.03;;;;;;;15.54;78.46;100226.34;5039404;28;20164;-44
2022/05/24 06:57:54;;;;;;;3.85;1.73;;;;;;;15.34;80.89;100238.69;5052762;28;20045;-47
2022/05/24 07:03:11;;;;;;;8.45;2.20;;;;;;;15.15;79.88;100235.31;5056493;28;20053;-47
2022/05/24 07:05:40;;;;;;;7.18;1.95;;;;;;;15.60;79.65;100251.72;5054436;28;20102;-47
2022/05/24 07:08:24;;;;;;;7.15;2.40;;;;;;;15.34;74.52;100249.66;5054429;28;20099;-46
2022/05/24 07:10:55;;;;;;;9.20;2.70;;;;;;;15.34;75.35;100254.31;5040690;28;20048;-46
2022/05/24 07:13:43;;;;;;;8.27;2.45;;;;;;;15.17;74.66;100256.97;5037241;28;20411;-47
2022/05/24 07:16:30;;;;;;;7.85;2.70;;;;;;;15.19;75.13;100263.75;5048960;28;20041;-45
2022/05/24 07:19:19;;;;;;;9.48;2.65;;;;;;;15.17;74.28;100265.19;5036900;28;20095;-47
2022/05/24 07:21:55;;;;;;;8.25;2.50;;;;;;;15.55;75.78;100277.38;5035429;28;20056;-44
2022/05/24 07:24:43;;;;;;;9.70;3.05;;;;;;;15.39;75.51;100280.84;5037266;28;20132;-46
2022/05/24 07:27:16;;;;;;;10.68;2.80;;;;;;;15.41;72.25;100287.63;5036045;28;20057;-45
2022/05/24 07:30:04;;;;;;;9.27;2.70;;;;;;;14.99;71.38;100283.47;5055119;28;20048;-44
2022/05/24 07:32:52;;;;;;;11.00;3.15;;;;;;;14.84;71.77;100279.97;5037320;28;20053;-46
2022/05/24 07:35:38;;;;;;;17.42;4.78;;;;;;;14.89;71.82;100284.53;5034836;28;20048;-46
2022/05/24 07:38:25;;;;;;;12.90;3.20;;;;;;;14.82;71.85;100284.94;5037269;28;20125;-48
2022/05/24 07:47:09;;;;;;;16.27;4.97;;;;;;;15.36;74.20;100289.69;5037085;28;20041;-48
2022/05/24 07:49:58;;;;;;;13.63;3.70;;;;;;;15.19;74.24;100282.97;5036887;28;20042;-46
2022/05/24 07:52:45;;;;;;;43.45;11.93;;;;;;;15.65;77.76;100286.47;5036978;28;20056;-46
2022/05/24 07:55:33;;;;;;;12.00;4.40;;;;;;;15.64;71.73;100279.38;5036609;28;20056;-46
2022/05/24 07:58:21;;;;;;;10.88;4.03;;;;;;;15.34;69.59;100293.59;5043760;28;20041;-50
2022/05/24 08:01:10;;;;;;;12.98;4.45;;;;;;;15.19;71.67;100291.19;5055271;28;20480;-51
2022/05/24 08:03:38;;;;;;;11.57;4.07;;;;;;;15.35;71.35;100286.16;5055363;28;20077;-47
2022/05/24 08:06:07;;;;;;;19.77;5.72;;;;;;;15.43;71.90;100285.38;5055202;28;20072;-50
2022/05/24 08:08:35;;;;;;;9.90;3.67;;;;;;;15.34;71.44;100296.34;5053150;28;20045;-48
2022/05/24 08:11:04;;;;;;;10.57;3.72;;;;;;;15.42;72.59;100296.69;5050473;28;20541;-47
2022/05/24 08:13:32;;;;;;;11.98;4.57;;;;;;;15.26;71.15;100291.56;5054442;28;20072;-47
2022/05/24 08:16:01;;;;;;;9.57;3.60;;;;;;;15.05;70.31;100295.94;5055257;28;20381;-49
2022/05/24 08:18:30;;;;;;;8.63;3.42;;;;;;;14.94;70.57;100289.91;5050224;28;20052;-48
2022/05/24 08:20:58;;;;;;;12.27;4.28;;;;;;;15.03;72.39;100295.44;5045801;28;20206;-48
2022/05/24 08:23:27;;;;;;;16.55;4.63;;;;;;;15.12;70.51;100299.06;5044859;28;20034;-49
2022/05/24 08:26:05;;;;;;;9.52;4.00;;;;;;;14.95;69.61;100307.16;5034463;28;20054;-49
2022/05/24 08:28:50;;;;;;;23.45;6.78;;;;;;;15.28;76.08;100303.06;5046100;28;20048;-47
2022/05/24 08:31:25;;;;;;;9.63;3.83;;;;;;;15.39;69.23;100306.34;5038147;28;20032;-47
2022/05/24 08:34:14;;;;;;;8.20;3.60;;;;;;;15.22;69.44;100309.78;5043849;28;20060;-46
2022/05/24 08:37:01;;;;;;;10.60;3.50;;;;;;;15.21;70.31;100312.84;5035482;28;20038;-48
2022/05/24 08:39:29;;;;;;;9.57;3.47;;;;;;;15.27;70.41;100320.66;5034595;28;20075;-47
2022/05/24 08:42:36;;;;;;;9.35;3.45;;;;;;;15.20;69.84;100323.03;5033873;28;20426;-48
2022/05/24 08:48:30;;;;;;;11.75;3.78;;;;;;;15.58;70.18;100333.59;5036988;28;20050;-44
2022/05/24 08:51:21;;;;;;;12.20;4.20;;;;;;;15.80;70.79;100326.50;5039153;28;20412;-47
2022/05/24 08:54:12;;;;;;;9.52;3.22;;;;;;;15.68;68.63;100329.78;5053780;28;20048;-49
2022/05/24 08:56:57;;;;;;;9.65;3.50;;;;;;;15.61;67.04;100335.75;5032344;28;20034;-47
2022/05/24 08:59:57;;;;;;;11.57;3.20;;;;;;;15.76;65.71;100340.88;5042180;28;20099;-48
2022/05/24 09:02:46;;;;;;;10.23;3.83;;;;;;;15.67;66.67;100356.44;5034729;28;20064;-47
2022/05/24 09:05:22;;;;;;;10.98;4.35;;;;;;;15.46;66.69;100360.81;5016533;28;20462;-46
2022/05/24 09:08:26;;;;;;;8.95;3.40;;;;;;;15.16;69.40;100368.66;5033814;28;20042;-45
2022/05/24 09:11:14;;;;;;;7.38;3.60;;;;;;;15.11;72.31;100377.03;5033534;28;20056;-45
2022/05/24 09:14:07;;;;;;;10.10;3.70;;;;;;;15.25;72.85;100388.78;5054480;28;20416;-45
2022/05/24 09:17:04;;;;;;;10.48;3.83;;;;;;;15.43;72.93;100383.41;5052315;28;20056;-45
2022/05/24 09:19:37;;;;;;;10.75;3.28;;;;;;;15.29;72.46;100375.22;5046258;28;20077;-46
2022/05/24 09:22:06;;;;;;;5.88;3.17;;;;;;;15.37;72.06;100384.66;5036452;28;20047;-45
2022/05/24 09:24:56;;;;;;;8.00;3.70;;;;;;;15.40;71.58;100390.34;5052402;28;20051;-43
2022/05/24 09:27:26;;;;;;;6.65;3.55;;;;;;;15.45;70.47;100389.41;5037155;28;20107;-45
2022/05/24 09:30:05;;;;;;;7.72;3.55;;;;;;;15.46;71.14;100397.31;5034848;28;20060;-46
2022/05/24 09:32:42;;;;;;;7.60;3.20;;;;;;;15.45;70.45;100392.97;5016103;28;20475;-46
2022/05/24 09:35:26;;;;;;;6.20;3.13;;;;;;;15.43;70.27;100389.72;5033364;28;20041;-43
2022/05/24 09:38:14;;;;;;;8.82;3.20;;;;;;;15.32;68.97;100405.63;5041879;28;20136;-48
2022/05/24 09:40:58;;;;;;;8.73;3.40;;;;;;;15.44;71.02;100415.22;5052543;28;20128;-45
2022/05/24 09:44:00;;;;;;;6.30;3.20;;;;;;;15.64;72.17;100406.50;5053064;28;20056;-48
2022/05/24 09:46:29;;;;;;;8.50;3.20;;;;;;;15.56;66.72;100420.97;5033963;28;20103;-50
2022/05/24 09:49:27;;;;;;;22.27;9.70;;;;;;;15.79;73.89;100423.78;5044184;28;20047;-46
2022/05/24 09:51:56;;;;;;;9.32;3.10;;;;;;;15.47;67.41;100428.34;5052304;28;20115;-46
2022/05/24 09:54:57;;;;;;;11.88;3.10;;;;;;;15.29;67.86;100427.38;5051118;28;20488;-50
2022/05/24 09:57:44;;;;;;;10.35;4.30;;;;;;;15.27;69.49;100435.94;5046503;28;20041;-50
2022/05/24 10:00:23;;;;;;;8.20;3.88;;;;;;;15.20;68.46;100435.56;5035793;28;20052;-48
2022/05/24 10:03:12;;;;;;;10.15;4.22;;;;;;;15.29;68.08;100443.84;5052943;28;20102;-44
2022/05/24 10:06:27;;;;;;;11.00;3.90;;;;;;;15.29;68.13;100443.84;5041828;28;20056;-48
2022/05/24 10:08:58;;;;;;;6.72;3.33;;;;;;;15.29;67.11;100449.34;5033377;28;20091;-48
2022/05/24 10:11:28;;;;;;;7.07;3.65;;;;;;;15.33;66.44;100445.66;5033382;28;20049;-49
2022/05/24 10:14:00;;;;;;;6.85;3.88;;;;;;;15.29;66.79;100452.88;5033353;28;20447;-47
2022/05/24 10:16:34;;;;;;;8.38;3.58;;;;;;;15.49;66.99;100437.06;5037697;28;20036;-49
2022/05/24 10:19:38;;;;;;;8.20;4.00;;;;;;;15.50;66.66;100444.19;5035992;28;20052;-47
2022/05/24 10:22:25;;;;;;;8.68;3.40;;;;;;;15.47;68.32;100450.31;5032837;28;20072;-48
2022/05/24 10:25:22;;;;;;;6.80;3.40;;;;;;;15.33;67.24;100458.59;4336728;28;10000685;-45
2022/05/24 10:28:02;;;;;;;6.20;3.35;;;;;;;15.22;67.33;100471.72;5041242;28;20099;-49
2022/05/24 10:30:59;;;;;;;7.38;3.42;;;;;;;15.19;69.84;100469.59;5047982;28;20411;-48
2022/05/24 10:41:18;;;;;;;7.07;2.80;;;;;;;15.22;72.41;100479.13;5014278;28;20046;-51
2022/05/24 10:44:13;;;;;;;6.07;2.72;;;;;;;15.26;67.99;100480.16;5026909;28;20057;-47
2022/05/24 10:47:06;;;;;;;6.70;2.40;;;;;;;15.23;65.86;100500.00;5031250;28;20136;-48
2022/05/24 10:50:28;;;;;;;3.40;2.10;;;;;;;15.20;66.22;100497.84;5029607;28;20084;-48
2022/05/24 10:53:41;;;;;;;6.22;2.28;;;;;;;15.21;66.60;100505.78;5028534;28;20041;-50
2022/05/24 10:56:49;;;;;;;4.90;2.35;;;;;;;15.21;66.94;100502.22;5030444;28;20424;-51
2022/05/24 11:00:19;;;;;;;4.53;2.35;;;;;;;15.19;66.47;100499.78;5029965;28;20053;-47
2022/05/24 11:03:14;;;;;;;3.45;1.90;;;;;;;15.40;65.56;100502.09;5028216;28;20049;-48
2022/05/24 11:06:16;;;;;;;4.13;2.10;;;;;;;15.52;64.67;100507.84;5028537;28;20053;-49
2022/05/24 11:09:09;;;;;;;2.97;1.80;;;;;;;15.62;64.89;100491.16;5029245;28;20512;-51
2022/05/24 11:12:12;;;;;;;3.83;2.10;;;;;;;15.76;64.35;100491.94;5018413;28;20050;-47
2022/05/24 11:14:47;;;;;;;5.72;2.30;;;;;;;15.82;63.45;100497.31;5042528;28;20052;-47
2022/05/24 11:17:18;;;;;;;3.80;2.00;;;;;;;15.92;62.91;100499.81;5049667;28;20053;-47
2022/05/24 11:19:49;;;;;;;6.18;2.22;;;;;;;15.81;61.66;100492.94;5041944;28;20056;-49
2022/05/24 11:22:28;;;;;;;3.90;2.20;;;;;;;15.73;60.54;100492.56;5044622;28;20414;-48
2022/05/24 11:25:05;;;;;;;4.93;2.53;;;;;;;15.81;62.00;100492.94;5022970;28;20474;-48
2022/05/24 11:27:46;;;;;;;3.30;1.83;;;;;;;15.89;62.65;100494.94;5017836;28;20041;-51
2022/05/24 11:30:19;;;;;;;4.13;2.55;;;;;;;16.10;61.79;100500.75;5042911;28;20041;-51
2022/05/24 11:32:51;;;;;;;5.13;2.40;;;;;;;16.02;61.35;100493.25;5035200;28;20531;-47
2022/05/24 11:35:29;;;;;;;3.97;2.53;;;;;;;16.09;61.32;100499.97;5028432;28;20045;-52
2022/05/24 11:38:23;;;;;;;6.38;2.75;;;;;;;16.18;61.85;100491.75;5039168;28;20041;-49
2022/05/24 11:40:57;;;;;;;3.88;2.40;;;;;;;16.26;60.61;100503.91;5045148;28;20046;-52
2022/05/24 11:43:44;;;;;;;5.68;2.58;;;;;;;16.20;60.36;100522.50;5036339;28;20046;-47
2022/05/24 11:46:34;;;;;;;4.90;2.60;;;;;;;16.02;63.64;100534.47;5055948;28;20049;-48
2022/05/24 11:49:22;;;;;;;4.18;1.77;;;;;;;15.96;64.65;100526.34;5055575;28;20132;-48
2022/05/24 11:51:58;;;;;;;3.60;1.60;;;;;;;15.90;62.73;100518.56;5023413;28;20129;-47
2022/05/24 11:54:48;;;;;;;3.72;1.80;;;;;;;15.84;61.62;100515.09;5035860;28;20048;-48
2022/05/24 11:57:41;;;;;;;3.33;1.65;;;;;;;15.94;65.90;100520.34;5054177;28;20423;-46
2022/05/24 12:00:12;;;;;;;4.25;1.80;;;;;;;16.03;62.39;100514.13;5045934;28;20073;-48
2022/05/24 12:09:19;;;;;;;4.68;2.33;;;;;;;16.35;60.95;100529.53;5043169;28;20155;-48
2022/05/24 12:12:56;;;;;;;5.15;2.17;;;;;;;16.44;61.56;100535.91;5055502;28;20044;-48
2022/05/24 12:15:44;;;;;;;4.18;2.40;;;;;;;16.63;59.99;100543.13;5041572;28;20057;-47
2022/05/24 12:18:15;;;;;;;5.38;2.50;;;;;;;16.62;58.60;100528.56;5035522;28;20077;-48
2022/05/24 12:20:43;;;;;;;4.25;2.17;;;;;;;16.66;60.25;100537.78;5035267;28;20077;-49
2022/05/24 12:23:34;;;;;;;3.83;1.60;;;;;;;16.79;60.59;100531.44;5035416;28;20446;-49
2022/05/24 12:26:03;;;;;;;4.70;2.30;;;;;;;16.88;60.13;100531.44;5035313;28;20041;-48
2022/05/24 12:28:34;;;;;;;7.75;2.42;;;;;;;16.78;59.09;100531.72;5049397;28;20041;-48
2022/05/24 12:31:14;;;;;;;4.90;2.45;;;;;;;16.68;58.42;100541.06;5055254;28;20051;-49
2022/05/24 12:33:59;;;;;;;4.00;1.85;;;;;;;16.54;56.84;100549.38;5051375;28;20045;-49
2022/05/24 12:36:40;;;;;;;3.57;1.40;;;;;;;16.56;57.94;100549.88;5033600;28;20080;-46
2022/05/24 12:39:35;;;;;;;4.50;2.00;;;;;;;16.52;55.29;100562.63;5033798;28;20042;-49
2022/05/24 12:42:16;;;;;;;2.40;1.92;;;;;;;16.46;56.98;100574.91;5033607;28;20052;-50
2022/05/24 12:45:06;;;;;;;5.55;1.92;;;;;;;16.39;57.34;100569.03;5033703;28;20049;-50
2022/05/24 12:47:43;;;;;;;3.47;1.90;;;;;;;16.40;57.98;100576.97;5034731;28;20096;-50
2022/05/24 12:50:43;;;;;;;3.63;1.90;;;;;;;16.36;59.34;100577.91;5034770;28;20033;-49
2022/05/24 12:53:31;;;;;;;3.15;1.75;;;;;;;16.50;58.76;100575.91;5036177;28;20057;-48
2022/05/24 12:56:21;;;;;;;4.65;2.03;;;;;;;16.65;58.89;100576.66;5053299;28;20041;-48
2022/05/24 12:59:11;;;;;;;5.90;2.00;;;;;;;16.80;58.20;100581.75;5053028;28;20037;-49
2022/05/24 13:01:58;;;;;;;4.85;1.70;;;;;;;16.77;58.25;100585.13;5053098;28;20384;-48
2022/05/24 13:04:31;;;;;;;4.03;1.88;;;;;;;16.68;56.55;100582.31;5051632;28;20047;-48
2022/05/24 13:07:58;;;;;;;5.60;2.20;;;;;;;16.71;56.41;100589.13;5053016;28;20099;-48
2022/05/24 13:10:48;;;;;;;2.88;1.77;;;;;;;16.58;54.52;100583.38;5054047;28;20045;-48